Time;durP1;ratioP1;P1;durP2;ratioP2;P2;SDS_P1;SDS_P2;PMS_P1;PMS_P2;Temp;Humidity;BMP_temperature;BMP_pressure;BME280_temperature;BME280_humidity;BME280_pressure;Samples;Min_cycle;Max_cycle;Signal;HPM_P1;HPM_P2
2023/08/23 00:00:11;;;;;;;881.22;839.85;;;24.20;79.00;;;;;;5000301;28;20668;-92
2023/08/23 00:02:37;;;;;;;850.45;812.55;;;23.90;79.90;;;;;;5000027;28;20185;-93
2023/08/23 00:05:03;;;;;;;832.45;796.35;;;23.90;80.60;;;;;;5000611;28;20545;-94
2023/08/23 00:07:28;;;;;;;806.85;772.53;;;23.80;81.30;;;;;;5001213;28;20202;-92
2023/08/23 00:09:54;;;;;;;775.30;743.60;;;23.70;81.80;;;;;;5014283;28;20221;-92
2023/08/23 00:12:20;;;;;;;770.50;738.55;;;23.70;81.50;;;;;;5000245;28;20221;-94
2023/08/23 00:14:45;;;;;;;725.13;697.42;;;23.70;81.40;;;;;;5000185;28;20261;-93
2023/08/23 00:17:11;;;;;;;722.90;695.05;;;23.50;83.00;;;;;;5000975;28;20209;-92
2023/08/23 00:19:37;;;;;;;729.67;701.55;;;23.40;83.20;;;;;;4999220;28;20210;-93
2023/08/23 00:22:03;;;;;;;747.55;717.70;;;23.30;83.80;;;;;;4999316;28;20178;-93
2023/08/23 00:24:28;;;;;;;721.60;693.83;;;23.30;84.40;;;;;;4997892;28;20193;-93
2023/08/23 00:26:55;;;;;;;713.05;685.55;;;23.30;83.80;;;;;;5000131;28;20189;-92
2023/08/23 00:29:20;;;;;;;735.53;707.10;;;23.40;82.80;;;;;;4999649;28;20190;-93
2023/08/23 00:31:46;;;;;;;730.65;702.50;;;23.40;82.30;;;;;;4999253;28;20721;-92
2023/08/23 00:34:11;;;;;;;715.20;688.00;;;23.50;82.70;;;;;;5003280;28;20288;-94
2023/08/23 00:36:37;;;;;;;718.33;690.60;;;23.40;83.20;;;;;;5008215;28;20192;-94
2023/08/23 00:39:03;;;;;;;723.08;695.13;;;23.30;83.20;;;;;;5017465;28;20253;-93
2023/08/23 00:41:28;;;;;;;740.00;711.25;;;23.40;82.80;;;;;;5018339;28;20205;-94
2023/08/23 00:43:54;;;;;;;746.05;716.28;;;23.30;84.20;;;;;;5015636;28;20272;-94
2023/08/23 00:46:20;;;;;;;723.22;695.88;;;23.20;85.50;;;;;;5024697;28;20204;-92
2023/08/23 00:48:47;;;;;;;760.60;730.03;;;23.30;84.60;;;;;;5007617;28;20202;-92
2023/08/23 00:51:14;;;;;;;744.55;715.22;;;23.10;85.00;;;;;;5006289;28;20194;-95
2023/08/23 00:53:40;;;;;;;737.50;708.53;;;23.30;84.40;;;;;;5006525;28;20194;-94
2023/08/23 00:56:05;;;;;;;776.63;744.40;;;23.20;84.10;;;;;;5007654;28;20278;-92
2023/08/23 00:58:33;;;;;;;777.15;745.05;;;23.10;85.20;;;;;;5005907;28;20214;-94
2023/08/23 01:01:00;;;;;;;747.00;717.38;;;23.00;85.80;;;;;;5006457;28;20170;-93
2023/08/23 01:03:26;;;;;;;773.25;741.08;;;22.90;85.00;;;;;;5006895;28;20182;-93
2023/08/23 01:06:13;;;;;;;759.40;728.08;;;22.80;86.50;;;;;;5006949;28;20210;-93
2023/08/23 01:08:49;;;;;;;751.75;721.47;;;22.70;86.60;;;;;;5004686;28;20198;-94
2023/08/23 01:11:27;;;;;;;747.67;717.10;;;22.80;86.30;;;;;;5006650;28;20188;-94
2023/08/23 01:14:01;;;;;;;740.35;710.65;;;22.90;85.80;;;;;;5005849;28;20257;-94
2023/08/23 01:16:29;;;;;;;764.63;733.58;;;22.80;85.50;;;;;;5021122;28;20189;-93
2023/08/23 01:18:58;;;;;;;759.92;728.60;;;22.90;85.50;;;;;;5005448;28;20213;-92
2023/08/23 01:21:32;;;;;;;783.53;751.15;;;22.80;85.60;;;;;;5005379;28;20268;-92
2023/08/23 01:23:58;;;;;;;764.88;733.78;;;22.80;85.80;;;;;;5005402;28;20205;-93
2023/08/23 01:26:24;;;;;;;779.67;747.25;;;22.80;85.50;;;;;;5005108;28;20607;-93
2023/08/23 01:28:51;;;;;;;781.05;749.05;;;22.80;85.60;;;;;;5003696;28;20221;-92
2023/08/23 01:31:20;;;;;;;770.00;738.30;;;22.80;85.70;;;;;;5005265;28;20189;-93
2023/08/23 01:34:00;;;;;;;763.10;731.70;;;22.80;85.60;;;;;;5004165;28;20178;-92
2023/08/23 01:36:28;;;;;;;748.22;718.35;;;22.80;85.50;;;;;;5003593;28;20190;-92
2023/08/23 01:38:56;;;;;;;760.85;730.33;;;22.80;85.20;;;;;;5017147;28;20217;-92
2023/08/23 01:41:23;;;;;;;781.28;748.58;;;22.90;85.10;;;;;;5002405;28;20194;-94
2023/08/23 01:43:48;;;;;;;788.92;755.95;;;22.80;85.50;;;;;;5002284;28;20174;-93
2023/08/23 01:46:14;;;;;;;799.88;766.45;;;22.60;86.70;;;;;;5003253;28;20194;-93
2023/08/23 01:48:40;;;;;;;814.15;779.20;;;22.40;88.30;;;;;;5003198;28;20221;-94
2023/08/23 01:51:06;;;;;;;809.42;774.65;;;22.50;87.80;;;;;;5003954;28;20567;-92
2023/08/23 01:53:32;;;;;;;781.40;749.25;;;22.30;89.00;;;;;;5004722;28;20182;-93
2023/08/23 01:55:59;;;;;;;799.25;765.17;;;22.30;88.90;;;;;;5004224;28;20190;-92
2023/08/23 01:58:32;;;;;;;764.72;733.40;;;22.00;90.60;;;;;;5003159;28;20267;-94
2023/08/23 02:00:59;;;;;;;765.65;734.55;;;22.00;91.10;;;;;;5003732;28;20173;-95
2023/08/23 02:03:24;;;;;;;779.72;747.15;;;22.20;89.60;;;;;;5003604;28;20214;-93
2023/08/23 02:05:50;;;;;;;770.45;739.25;;;22.20;89.30;;;;;;5003844;28;20206;-93
2023/08/23 02:08:17;;;;;;;770.05;738.63;;;22.10;90.70;;;;;;5003915;28;20672;-92
2023/08/23 02:10:42;;;;;;;753.03;722.40;;;21.90;91.50;;;;;;5004209;28;20179;-93
2023/08/23 02:13:08;;;;;;;747.53;717.83;;;21.90;91.10;;;;;;5003317;28;20949;-92
2023/08/23 02:15:33;;;;;;;750.22;719.80;;;21.80;91.70;;;;;;5003680;28;20186;-92
2023/08/23 02:17:59;;;;;;;749.65;720.00;;;21.90;91.80;;;;;;5001840;28;20241;-93
2023/08/23 02:20:25;;;;;;;746.92;716.85;;;22.00;91.40;;;;;;5004016;28;20209;-93
2023/08/23 02:22:50;;;;;;;768.92;737.80;;;22.00;91.10;;;;;;5003255;28;20190;-93
2023/08/23 02:25:16;;;;;;;748.30;719.17;;;22.00;90.80;;;;;;5002982;28;20198;-94
2023/08/23 02:27:42;;;;;;;727.05;698.47;;;21.90;91.30;;;;;;5002782;28;20222;-92
2023/08/23 02:30:08;;;;;;;711.25;684.30;;;21.70;92.60;;;;;;5002922;28;20201;-94
2023/08/23 02:32:34;;;;;;;741.03;711.92;;;21.90;91.50;;;;;;5002768;28;20194;-91
2023/08/23 02:35:02;;;;;;;747.80;718.40;;;22.00;90.60;;;;;;5003173;28;20174;-93
2023/08/23 02:37:27;;;;;;;729.08;701.03;;;22.00;90.40;;;;;;5001035;28;20194;-93
2023/08/23 02:39:53;;;;;;;731.92;703.28;;;22.00;90.90;;;;;;5001269;28;20791;-93
2023/08/23 02:42:19;;;;;;;731.25;702.53;;;21.80;91.60;;;;;;5001827;28;20198;-94
2023/08/23 02:44:44;;;;;;;744.72;715.80;;;21.80;91.60;;;;;;5000635;28;20213;-94
2023/08/23 02:47:10;;;;;;;717.55;690.10;;;21.70;92.30;;;;;;5001221;28;20185;-93
2023/08/23 02:49:36;;;;;;;702.17;675.90;;;21.60;92.50;;;;;;5002674;28;20190;-92
2023/08/23 02:52:01;;;;;;;713.67;686.15;;;21.50;92.80;;;;;;5004332;28;20181;-93
2023/08/23 02:54:27;;;;;;;697.22;671.00;;;21.50;93.30;;;;;;5002705;28;20186;-93
2023/08/23 02:56:53;;;;;;;704.45;678.17;;;21.50;92.70;;;;;;5002545;28;20192;-92
2023/08/23 02:59:18;;;;;;;690.65;665.17;;;21.60;92.60;;;;;;5001813;28;20182;-92
2023/08/23 03:01:44;;;;;;;710.10;683.25;;;21.50;92.80;;;;;;5003206;28;20189;-92
2023/08/23 03:04:09;;;;;;;702.47;675.88;;;21.50;92.70;;;;;;5003972;28;20209;-91
2023/08/23 03:06:35;;;;;;;703.72;677.30;;;21.70;91.80;;;;;;5001808;28;20174;-91
2023/08/23 03:09:01;;;;;;;698.83;672.58;;;21.70;90.40;;;;;;5001424;28;20281;-94
2023/08/23 03:11:27;;;;;;;667.55;643.13;;;21.70;91.20;;;;;;5002741;28;20197;-93
2023/08/23 03:13:52;;;;;;;619.80;598.17;;;21.40;91.50;;;;;;5002393;28;20289;-93
2023/08/23 03:16:18;;;;;;;668.35;644.25;;;21.20;93.10;;;;;;5002426;28;20179;-93
2023/08/23 03:18:44;;;;;;;661.97;637.92;;;21.10;93.90;;;;;;5002583;28;20202;-94
2023/08/23 03:21:09;;;;;;;669.67;644.88;;;21.30;93.10;;;;;;5001036;28;20209;-93
2023/08/23 03:23:45;;;;;;;674.45;649.53;;;21.20;92.80;;;;;;5003661;28;20734;-94
2023/08/23 03:26:10;;;;;;;680.40;655.30;;;21.30;92.80;;;;;;5017825;28;20186;-92
2023/08/23 03:28:36;;;;;;;692.25;666.30;;;21.40;92.30;;;;;;5018067;28;20263;-92
2023/08/23 03:31:05;;;;;;;692.08;666.13;;;21.40;92.20;;;;;;5002603;28;20174;-93
2023/08/23 03:33:31;;;;;;;674.00;648.80;;;21.40;92.10;;;;;;5001623;28;20189;-91
2023/08/23 03:35:58;;;;;;;696.80;670.63;;;21.40;91.80;;;;;;5003086;28;20202;-91
2023/08/23 03:38:24;;;;;;;706.08;677.72;;;21.30;92.40;;;;;;5012808;28;20203;-91
2023/08/23 03:40:51;;;;;;;695.65;669.70;;;21.20;92.20;;;;;;4998051;28;20270;-90
2023/08/23 03:43:17;;;;;;;703.58;677.45;;;21.10;92.80;;;;;;4997559;28;20210;-92
2023/08/23 03:45:49;;;;;;;681.50;655.78;;;21.10;93.10;;;;;;4999068;28;20369;-91
2023/08/23 03:48:16;;;;;;;690.85;665.22;;;21.10;93.20;;;;;;4997381;28;20209;-89
2023/08/23 03:50:42;;;;;;;662.17;637.75;;;20.90;94.20;;;;;;4999414;28;20174;-92
2023/08/23 03:53:07;;;;;;;649.65;626.70;;;20.70;95.80;;;;;;5000014;28;20196;-90
2023/08/23 03:55:35;;;;;;;666.30;642.25;;;20.70;95.90;;;;;;5003279;28;20186;-92
2023/08/23 03:58:01;;;;;;;658.83;634.92;;;20.90;94.30;;;;;;4998461;28;20774;-91
2023/08/23 04:00:26;;;;;;;665.10;641.08;;;20.80;94.50;;;;;;4998542;28;20186;-91
2023/08/23 04:02:52;;;;;;;661.53;637.20;;;20.80;94.70;;;;;;4998887;28;20209;-91
2023/08/23 04:05:18;;;;;;;661.63;637.65;;;20.80;94.90;;;;;;4997711;28;20210;-92
2023/08/23 04:07:43;;;;;;;646.65;622.65;;;20.80;94.30;;;;;;4997531;28;20206;-91
2023/08/23 04:10:09;;;;;;;667.03;642.65;;;20.90;94.10;;;;;;4998249;28;20612;-91
2023/08/23 04:12:35;;;;;;;670.80;646.38;;;20.70;94.60;;;;;;4998719;28;20256;-93
2023/08/23 04:15:01;;;;;;;669.90;644.47;;;20.60;95.30;;;;;;4998064;28;20210;-91
2023/08/23 04:17:26;;;;;;;661.75;637.65;;;20.60;94.90;;;;;;4998777;28;20206;-92
2023/08/23 04:19:52;;;;;;;636.58;614.08;;;20.50;96.60;;;;;;4998623;28;20270;-90
2023/08/23 04:22:18;;;;;;;598.67;578.05;;;20.30;97.60;;;;;;4998737;28;20317;-92
2023/08/23 04:24:43;;;;;;;588.30;568.30;;;20.30;97.90;;;;;;4998498;28;20262;-90
2023/08/23 04:27:09;;;;;;;606.10;584.75;;;20.40;96.70;;;;;;4997778;28;20189;-90
2023/08/23 04:29:35;;;;;;;609.45;587.47;;;20.50;96.10;;;;;;4998656;28;20221;-92
2023/08/23 04:32:09;;;;;;;603.88;582.50;;;20.40;95.70;;;;;;4996366;28;20185;-91
2023/08/23 04:34:34;;;;;;;610.15;588.75;;;20.50;96.20;;;;;;5010989;28;20691;-93
2023/08/23 04:37:00;;;;;;;589.80;569.70;;;20.60;94.80;;;;;;4996903;28;20189;-91
2023/08/23 04:39:26;;;;;;;601.45;580.95;;;20.40;96.20;;;;;;4997711;28;20209;-92
2023/08/23 04:41:51;;;;;;;588.30;568.17;;;20.30;96.20;;;;;;4997154;28;20208;-92
2023/08/23 04:44:17;;;;;;;589.47;569.72;;;20.40;95.80;;;;;;4996508;28;20210;-92
2023/08/23 04:46:44;;;;;;;567.75;548.92;;;20.50;95.70;;;;;;4999274;28;20170;-93
2023/08/23 04:49:10;;;;;;;496.23;480.55;;;20.30;96.50;;;;;;4998193;28;20197;-90
2023/08/23 04:51:35;;;;;;;508.15;491.80;;;20.10;97.80;;;;;;4998357;28;20178;-91
2023/08/23 04:54:01;;;;;;;490.90;475.10;;;20.00;99.20;;;;;;4997253;28;20240;-93
2023/08/23 04:56:27;;;;;;;497.52;481.67;;;20.20;97.70;;;;;;4998551;28;20220;-91
2023/08/23 04:58:53;;;;;;;506.67;490.27;;;20.30;97.10;;;;;;4997398;28;20297;-92
2023/08/23 05:01:21;;;;;;;533.53;516.10;;;20.30;97.10;;;;;;4997836;28;20276;-89
2023/08/23 05:03:47;;;;;;;525.25;508.23;;;20.40;96.10;;;;;;4996807;28;20196;-93
2023/08/23 05:06:12;;;;;;;533.08;515.83;;;20.40;95.70;;;;;;4999039;28;20192;-92
2023/08/23 05:08:40;;;;;;;477.98;462.95;;;20.40;96.20;;;;;;5003379;28;20189;-92
2023/08/23 05:11:09;;;;;;;468.70;454.17;;;20.20;97.30;;;;;;5003075;28;20183;-91
2023/08/23 05:13:34;;;;;;;461.90;447.42;;;20.00;98.90;;;;;;5002238;28;20582;-92
2023/08/23 05:16:00;;;;;;;460.45;446.08;;;19.90;99.80;;;;;;4997302;28;20246;-92
2023/08/23 05:18:26;;;;;;;464.67;450.10;;;19.90;99.50;;;;;;4999712;28;20209;-92
2023/08/23 05:21:03;;;;;;;464.10;449.40;;;20.00;99.20;;;;;;5002190;28;20197;-93
2023/08/23 05:23:28;;;;;;;478.42;463.48;;;20.20;98.70;;;;;;5002414;28;20169;-92
2023/08/23 05:25:55;;;;;;;488.30;472.98;;;20.40;97.70;;;;;;5002204;28;20391;-92
2023/08/23 05:28:21;;;;;;;529.38;511.80;;;20.50;96.90;;;;;;5000947;28;20190;-93
2023/08/23 05:30:49;;;;;;;544.25;525.78;;;20.60;96.20;;;;;;5000421;28;20178;-92
2023/08/23 05:33:15;;;;;;;525.17;507.58;;;20.70;96.70;;;;;;4999656;28;20194;-91
2023/08/23 05:35:44;;;;;;;521.92;504.23;;;20.70;96.10;;;;;;5008258;28;20186;-91
2023/08/23 05:38:12;;;;;;;511.77;494.90;;;20.70;95.60;;;;;;4990588;28;20237;-92
2023/08/23 05:40:39;;;;;;;504.83;488.30;;;20.70;96.10;;;;;;4989757;28;20183;-90
2023/08/23 05:43:06;;;;;;;518.45;501.58;;;20.70;96.80;;;;;;4997841;28;20187;-92
2023/08/23 05:45:31;;;;;;;491.50;475.33;;;20.60;98.70;;;;;;4998949;28;20189;-94
2023/08/23 05:47:59;;;;;;;475.25;460.10;;;20.60;98.70;;;;;;5013605;28;20266;-91
2023/08/23 05:50:25;;;;;;;453.83;439.40;;;20.60;99.00;;;;;;5010275;28;20215;-92
2023/08/23 05:52:51;;;;;;;479.42;464.15;;;20.60;99.40;;;;;;5012400;28;20263;-92
2023/08/23 05:55:16;;;;;;;491.67;476.10;;;20.70;99.40;;;;;;5009265;28;20185;-92
2023/08/23 05:57:42;;;;;;;508.48;492.02;;;20.80;98.40;;;;;;5010483;28;20198;-90
2023/08/23 06:00:09;;;;;;;511.38;494.63;;;21.00;97.30;;;;;;4982055;28;20186;-92
2023/08/23 06:02:35;;;;;;;520.22;503.67;;;21.10;95.40;;;;;;4997329;28;20276;-91
2023/08/23 06:05:03;;;;;;;537.00;519.25;;;21.40;93.80;;;;;;5000298;28;20718;-91
2023/08/23 06:07:29;;;;;;;540.35;522.38;;;21.60;93.50;;;;;;4986157;28;20207;-90
2023/08/23 06:09:57;;;;;;;594.85;574.58;;;21.80;92.10;;;;;;4994987;28;20198;-91
2023/08/23 06:12:25;;;;;;;614.00;592.55;;;21.90;88.70;;;;;;4992767;28;20208;-89
2023/08/23 06:14:50;;;;;;;634.78;611.97;;;22.00;88.20;;;;;;5013646;28;20226;-92
2023/08/23 06:17:16;;;;;;;624.20;602.20;;;22.10;87.60;;;;;;5000621;28;20206;-90
2023/08/23 06:19:42;;;;;;;598.85;577.92;;;22.10;87.30;;;;;;4989337;28;20406;-89
2023/08/23 06:22:08;;;;;;;588.63;568.60;;;22.10;89.70;;;;;;4996897;28;20193;-91
2023/08/23 06:24:34;;;;;;;576.50;556.92;;;22.10;87.60;;;;;;4996159;28;20464;-89
2023/08/23 06:27:00;;;;;;;582.08;561.80;;;22.10;88.10;;;;;;4996017;28;20183;-90
2023/08/23 06:29:25;;;;;;;627.83;605.78;;;22.20;88.20;;;;;;4997225;28;20232;-89
2023/08/23 06:31:51;;;;;;;632.97;609.83;;;22.40;87.20;;;;;;4996713;28;20236;-90
2023/08/23 06:34:17;;;;;;;621.85;600.03;;;22.40;86.10;;;;;;4998136;28;20193;-90
2023/08/23 06:36:42;;;;;;;639.13;616.28;;;22.30;85.40;;;;;;4997088;28;20185;-91
2023/08/23 06:39:08;;;;;;;623.50;601.15;;;22.40;84.50;;;;;;4999528;28;20213;-89
2023/08/23 06:41:33;;;;;;;634.63;611.47;;;22.50;84.70;;;;;;5000671;28;20237;-92
2023/08/23 06:44:00;;;;;;;643.88;619.95;;;22.60;83.50;;;;;;4999743;28;20526;-93
2023/08/23 06:46:26;;;;;;;633.15;609.90;;;22.60;83.80;;;;;;4999495;28;20183;-90
2023/08/23 06:48:56;;;;;;;603.00;582.20;;;22.70;82.40;;;;;;4999008;28;20615;-89
2023/08/23 06:51:23;;;;;;;620.22;598.60;;;22.80;81.40;;;;;;4999796;28;20758;-90
2023/08/23 06:53:51;;;;;;;616.42;594.97;;;22.80;81.10;;;;;;4999456;28;20179;-90
2023/08/23 06:56:17;;;;;;;606.03;585.03;;;22.70;81.70;;;;;;4999994;28;20185;-89
2023/08/23 06:58:42;;;;;;;594.35;574.05;;;22.70;81.00;;;;;;4998682;28;20199;-90
2023/08/23 07:01:17;;;;;;;602.45;581.10;;;22.80;80.50;;;;;;4999006;28;20552;-90
2023/08/23 07:03:44;;;;;;;597.40;576.28;;;22.90;79.90;;;;;;4978866;28;20190;-93
2023/08/23 07:06:14;;;;;;;623.78;601.50;;;23.00;79.50;;;;;;4980012;28;20253;-92
2023/08/23 07:08:43;;;;;;;668.28;642.90;;;23.30;78.90;;;;;;4996021;28;20202;-93
2023/08/23 07:11:09;;;;;;;691.38;665.00;;;23.40;78.80;;;;;;4999639;28;20178;-91
2023/08/23 07:13:36;;;;;;;671.88;646.78;;;23.40;78.50;;;;;;5014259;28;20194;-91
2023/08/23 07:16:02;;;;;;;639.92;616.50;;;23.30;78.60;;;;;;4999974;28;20187;-92
2023/08/23 07:18:29;;;;;;;632.63;610.03;;;23.20;78.30;;;;;;4998966;28;20202;-90
2023/08/23 07:20:54;;;;;;;673.22;648.70;;;23.30;79.20;;;;;;4997878;28;20197;-92
2023/08/23 07:23:20;;;;;;;699.30;672.70;;;23.40;78.00;;;;;;4996418;28;20269;-92
2023/08/23 07:25:46;;;;;;;705.17;678.28;;;23.60;77.20;;;;;;4997458;28;20205;-92
2023/08/23 07:28:13;;;;;;;723.63;694.80;;;23.70;77.00;;;;;;4997648;28;20257;-92
2023/08/23 07:30:43;;;;;;;711.13;682.95;;;23.70;76.70;;;;;;4997957;28;20187;-91
2023/08/23 07:33:09;;;;;;;734.05;705.33;;;23.80;77.10;;;;;;4998815;28;20185;-92
2023/08/23 07:35:34;;;;;;;751.38;721.72;;;24.00;76.40;;;;;;4998382;28;20277;-92
2023/08/23 07:38:00;;;;;;;768.88;737.15;;;24.00;76.10;;;;;;4999276;28;20262;-92
2023/08/23 07:40:26;;;;;;;754.95;724.40;;;24.00;75.10;;;;;;4999089;28;20182;-92
2023/08/23 07:42:51;;;;;;;782.67;749.75;;;24.00;75.60;;;;;;4998957;28;20257;-92
2023/08/23 07:45:17;;;;;;;788.67;755.53;;;24.20;75.40;;;;;;4999120;28;20202;-93
2023/08/23 07:47:43;;;;;;;786.53;753.22;;;24.30;75.50;;;;;;4999511;28;20198;-89
2023/08/23 07:50:09;;;;;;;787.17;753.33;;;24.40;74.30;;;;;;4999190;28;20174;-92
2023/08/23 07:52:36;;;;;;;793.20;758.75;;;24.40;73.90;;;;;;4998718;28;20248;-90
2023/08/23 07:55:01;;;;;;;779.38;746.67;;;24.30;74.70;;;;;;4999464;28;20656;-89
2023/08/23 07:57:27;;;;;;;782.65;749.67;;;24.30;75.30;;;;;;4998463;28;20202;-92
2023/08/23 07:59:55;;;;;;;809.25;774.05;;;24.40;75.70;;;;;;4999122;28;20190;-92
2023/08/23 08:02:22;;;;;;;823.50;787.00;;;24.50;74.30;;;;;;4999217;28;20655;-92
2023/08/23 08:04:47;;;;;;;791.50;757.67;;;24.60;74.30;;;;;;5000893;28;20198;-92
2023/08/23 08:07:13;;;;;;;798.35;763.83;;;24.80;73.40;;;;;;4999588;28;20189;-93
2023/08/23 08:09:38;;;;;;;810.45;775.17;;;24.80;73.30;;;;;;4999661;28;20660;-93
2023/08/23 08:12:04;;;;;;;769.47;737.53;;;25.00;72.90;;;;;;4999265;28;20240;-90
2023/08/23 08:14:30;;;;;;;790.65;756.92;;;25.10;72.00;;;;;;4998336;28;20185;-90
2023/08/23 08:16:56;;;;;;;781.05;748.47;;;25.20;73.40;;;;;;5007071;28;20181;-91
2023/08/23 08:19:22;;;;;;;725.38;697.10;;;25.20;71.80;;;;;;5002638;28;20234;-93
2023/08/23 08:21:47;;;;;;;755.15;724.53;;;25.20;70.90;;;;;;5000072;28;20317;-92
2023/08/23 08:24:13;;;;;;;788.78;755.83;;;25.20;70.90;;;;;;4998740;28;20213;-90
2023/08/23 08:26:39;;;;;;;810.13;775.03;;;25.20;71.30;;;;;;4999111;28;20201;-92
2023/08/23 08:29:05;;;;;;;817.08;780.67;;;25.40;71.70;;;;;;4998501;28;20217;-92
2023/08/23 08:31:30;;;;;;;822.47;786.15;;;25.30;72.20;;;;;;4998900;28;20182;-93
2023/08/23 08:33:58;;;;;;;715.88;688.45;;;25.40;72.50;;;;;;4997857;28;20178;-91
2023/08/23 08:36:23;;;;;;;694.72;668.58;;;25.70;69.50;;;;;;5013885;28;20226;-93
2023/08/23 08:38:49;;;;;;;718.78;691.90;;;25.80;68.80;;;;;;4999772;28;20208;-90
2023/08/23 08:41:16;;;;;;;699.45;672.95;;;25.70;69.00;;;;;;5000713;28;20217;-91
2023/08/23 08:43:41;;;;;;;729.88;701.00;;;25.70;68.90;;;;;;5000859;28;20233;-91
2023/08/23 08:46:07;;;;;;;759.15;728.75;;;25.70;69.80;;;;;;4998955;28;20213;-92
2023/08/23 08:48:33;;;;;;;721.33;693.80;;;25.90;69.70;;;;;;4999661;28;20198;-91
2023/08/23 08:50:59;;;;;;;722.92;694.97;;;26.10;66.50;;;;;;4999012;28;20182;-92
2023/08/23 08:53:26;;;;;;;746.17;716.80;;;26.40;68.80;;;;;;5016922;28;20191;-91
2023/08/23 08:55:52;;;;;;;759.17;728.75;;;26.10;68.10;;;;;;5004156;28;20183;-92
2023/08/23 08:58:21;;;;;;;772.38;740.40;;;26.30;67.90;;;;;;5004416;28;20199;-91
2023/08/23 09:00:49;;;;;;;765.03;734.10;;;26.60;64.50;;;;;;5002758;28;20229;-93
2023/08/23 09:03:17;;;;;;;790.35;757.50;;;27.00;65.30;;;;;;5003239;28;20178;-93
2023/08/23 09:05:44;;;;;;;797.08;763.58;;;27.20;64.20;;;;;;5003065;28;20704;-93
2023/08/23 09:08:10;;;;;;;780.92;748.88;;;26.70;65.30;;;;;;5002770;28;20194;-93
2023/08/23 09:10:35;;;;;;;808.17;773.85;;;26.90;64.30;;;;;;5002902;28;20556;-93
2023/08/23 09:13:01;;;;;;;810.13;776.15;;;26.80;63.00;;;;;;5001674;28;20182;-91
2023/08/23 09:15:27;;;;;;;851.53;813.67;;;27.10;63.70;;;;;;5001073;28;20640;-91
2023/08/23 09:17:54;;;;;;;868.17;828.53;;;27.50;61.40;;;;;;5002323;28;20260;-91
2023/08/23 09:20:21;;;;;;;897.55;855.42;;;27.50;62.40;;;;;;5001187;28;20510;-92
2023/08/23 09:22:53;;;;;;;901.15;858.85;;;27.30;61.70;;;;;;5001313;28;20174;-92
2023/08/23 09:25:20;;;;;;;894.35;852.45;;;27.20;62.50;;;;;;5016527;28;20214;-93
2023/08/23 09:27:46;;;;;;;908.35;865.17;;;27.30;61.90;;;;;;5000654;28;20213;-90
2023/08/23 09:30:12;;;;;;;897.40;855.25;;;27.30;62.10;;;;;;5003579;28;20182;-92
2023/08/23 09:32:39;;;;;;;904.72;861.13;;;27.40;61.90;;;;;;5034662;28;20265;-92
2023/08/23 09:35:15;;;;;;;901.03;858.47;;;27.60;61.70;;;;;;5017593;28;20174;-92
2023/08/23 09:37:46;;;;;;;886.72;844.80;;;27.60;60.80;;;;;;5015432;28;20235;-92
2023/08/23 09:40:30;;;;;;;867.40;828.30;;;27.50;60.40;;;;;;5007320;28;20213;-93
2023/08/23 09:42:56;;;;;;;892.15;850.58;;;27.60;59.20;;;;;;5004983;28;20192;-91
2023/08/23 09:45:23;;;;;;;881.45;840.78;;;27.80;59.70;;;;;;5004285;28;20215;-92
2023/08/23 09:47:58;;;;;;;905.10;861.60;;;27.90;58.90;;;;;;5003254;28;20274;-92
2023/08/23 09:50:25;;;;;;;1732.68;971.47;;;28.10;58.60;;;;;;5018909;28;20189;-92
2023/08/23 09:53:03;;;;;;;917.78;872.83;;;28.00;58.00;;;;;;5004022;28;20178;-91
2023/08/23 09:55:31;;;;;;;914.60;869.72;;;28.20;58.40;;;;;;5004552;28;20190;-93
2023/08/23 09:57:58;;;;;;;1999.90;999.90;;;28.50;58.10;;;;;;5003777;28;20248;-92
2023/08/23 10:00:27;;;;;;;1999.90;999.90;;;28.90;56.10;;;;;;5003727;28;20180;-92
2023/08/23 10:02:53;;;;;;;1999.90;999.90;;;28.50;55.70;;;;;;5002213;28;20182;-89
2023/08/23 10:05:19;;;;;;;1999.90;999.90;;;28.70;56.60;;;;;;5002850;28;20209;-93
2023/08/23 10:07:45;;;;;;;1999.90;999.90;;;29.20;55.60;;;;;;5000980;28;20199;-91
2023/08/23 10:10:11;;;;;;;1999.90;999.90;;;29.30;54.50;;;;;;5000826;28;20201;-91
2023/08/23 10:12:42;;;;;;;1999.90;999.90;;;29.80;54.60;;;;;;5001500;28;20217;-92
2023/08/23 10:15:09;;;;;;;1999.90;999.90;;;29.50;54.60;;;;;;4999132;28;20248;-93
2023/08/23 10:17:36;;;;;;;1999.90;999.90;;;29.70;53.30;;;;;;4998026;28;20342;-92
2023/08/23 10:20:07;;;;;;;1999.90;999.90;;;29.90;52.50;;;;;;4998828;28;20198;-92
2023/08/23 10:22:33;;;;;;;1999.90;999.90;;;29.60;53.20;;;;;;4998378;28;20660;-92
2023/08/23 10:24:59;;;;;;;1999.90;999.90;;;29.50;53.00;;;;;;4998648;28;20217;-92
2023/08/23 10:27:25;;;;;;;1999.90;999.90;;;29.90;52.90;;;;;;4999600;28;20761;-92
2023/08/23 10:29:51;;;;;;;1999.90;999.90;;;29.70;53.50;;;;;;5000098;28;20206;-92
2023/08/23 10:32:17;;;;;;;1999.90;999.90;;;29.90;54.30;;;;;;5000129;28;20243;-93
2023/08/23 10:34:43;;;;;;;1999.90;999.90;;;29.70;55.10;;;;;;5000622;28;20192;-90
2023/08/23 10:37:14;;;;;;;1999.90;999.90;;;29.70;54.30;;;;;;4998928;28;20276;-91
2023/08/23 10:39:52;;;;;;;1999.90;999.90;;;30.10;53.30;;;;;;4999247;28;20256;-92
2023/08/23 10:42:19;;;;;;;1999.90;999.90;;;30.40;51.00;;;;;;4999747;28;20179;-92
2023/08/23 10:44:59;;;;;;;1999.90;999.90;;;31.00;50.20;;;;;;4998942;28;20377;-91
2023/08/23 10:47:26;;;;;;;1999.90;999.90;;;30.80;48.70;;;;;;5000230;28;20210;-92
2023/08/23 10:49:52;;;;;;;1999.90;999.90;;;31.20;50.20;;;;;;4999661;28;20178;-93
2023/08/23 10:52:18;;;;;;;1999.90;999.90;;;30.90;48.20;;;;;;5000471;28;20209;-92
2023/08/23 10:54:43;;;;;;;1999.90;999.90;;;30.80;50.00;;;;;;4998742;28;20660;-92
2023/08/23 10:57:10;;;;;;;1999.90;999.90;;;30.90;51.00;;;;;;4998782;28;20198;-91
2023/08/23 10:59:36;;;;;;;1999.90;999.90;;;31.00;52.10;;;;;;4998402;28;20273;-94
2023/08/23 11:02:02;;;;;;;1999.90;999.90;;;31.20;50.10;;;;;;4997084;28;20284;-94
2023/08/23 11:04:28;;;;;;;1999.90;999.90;;;30.90;50.20;;;;;;5015906;28;20655;-92
2023/08/23 11:06:54;;;;;;;1999.90;999.90;;;31.20;49.00;;;;;;5001069;28;20178;-94
2023/08/23 11:09:20;;;;;;;1999.90;999.90;;;31.30;48.30;;;;;;5000459;28;20198;-95
2023/08/23 11:11:46;;;;;;;1999.90;999.90;;;31.10;49.40;;;;;;5001076;28;20190;-94
2023/08/23 11:14:12;;;;;;;1999.90;999.90;;;31.30;49.30;;;;;;5000867;28;20246;-94
2023/08/23 11:16:38;;;;;;;1999.90;999.90;;;31.50;48.60;;;;;;5000222;28;20186;-93
2023/08/23 11:19:08;;;;;;;1999.90;999.90;;;31.50;49.20;;;;;;5003515;28;20205;-96
2023/08/23 11:21:35;;;;;;;1999.90;999.90;;;31.80;48.20;;;;;;4998249;28;20221;-95
2023/08/23 11:24:04;;;;;;;1999.90;999.90;;;31.70;48.60;;;;;;5000381;28;20265;-94
2023/08/23 11:26:33;;;;;;;1999.90;999.90;;;32.00;46.30;;;;;;5001303;28;20178;-94
2023/08/23 11:29:00;;;;;;;1999.90;999.90;;;31.70;47.10;;;;;;5000578;28;20202;-93
2023/08/23 11:31:26;;;;;;;1999.90;999.90;;;31.30;46.70;;;;;;5000073;28;20180;-94
2023/08/23 11:33:52;;;;;;;1999.90;999.90;;;31.50;47.70;;;;;;4998703;28;20170;-94
2023/08/23 11:36:19;;;;;;;1999.90;999.90;;;32.00;46.30;;;;;;4998383;28;20193;-94
2023/08/23 11:38:47;;;;;;;1999.90;999.90;;;32.00;46.10;;;;;;4999690;28;20916;-92
2023/08/23 11:41:13;;;;;;;1999.90;999.90;;;32.30;43.70;;;;;;4994871;28;20392;-96
2023/08/23 11:43:44;;;;;;;1999.90;999.90;;;31.90;44.20;;;;;;5002361;28;20186;-94
2023/08/23 11:46:10;;;;;;;1999.90;999.90;;;32.20;45.00;;;;;;5003838;28;20210;-94
2023/08/23 11:48:36;;;;;;;1999.90;999.90;;;32.80;43.00;;;;;;5002206;28;20186;-95
2023/08/23 11:51:06;;;;;;;1999.90;999.90;;;32.50;40.70;;;;;;5001916;28;20182;-93
2023/08/23 11:53:32;;;;;;;1999.90;999.90;;;32.30;42.50;;;;;;4999656;28;20194;-94
2023/08/23 11:55:58;;;;;;;1999.90;999.90;;;32.50;40.50;;;;;;5001770;28;20197;-94
2023/08/23 11:58:24;;;;;;;1999.90;999.90;;;32.90;38.30;;;;;;5001628;28;20212;-92
2023/08/23 12:00:50;;;;;;;1999.90;999.90;;;33.00;38.70;;;;;;5000718;28;20251;-94
2023/08/23 12:03:16;;;;;;;1999.90;999.90;;;32.90;36.80;;;;;;5002718;28;20185;-94